sensor_id;sensor_type;location;lat;lon;timestamp;pressure;altitude;pressure_sealevel;temperature;humidity
6565;BME280;3316;44.118;27.258;2024-02-15T00:00:29;101667.59;;;6.09;100.00
6565;BME280;3316;44.118;27.258;2024-02-15T00:02:54;101674.94;;;6.23;100.00
6565;BME280;3316;44.118;27.258;2024-02-15T00:05:19;101687.09;;;6.21;100.00
6565;BME280;3316;44.118;27.258;2024-02-15T00:07:45;101667.53;;;6.04;100.00
6565;BME280;3316;44.118;27.258;2024-02-15T00:10:14;101679.44;;;6.29;100.00
6565;BME280;3316;44.118;27.258;2024-02-15T00:12:40;101655.22;;;6.00;100.00
6565;BME280;3316;44.118;27.258;2024-02-15T00:15:05;101653.38;;;5.96;100.00
6565;BME280;3316;44.118;27.258;2024-02-15T00:17:31;101673.31;;;6.28;100.00
6565;BME280;3316;44.118;27.258;2024-02-15T00:19:57;101665.25;;;6.18;100.00
6565;BME280;3316;44.118;27.258;2024-02-15T00:22:23;101662.50;;;6.13;100.00
6565;BME280;3316;44.118;27.258;2024-02-15T00:24:48;101665.25;;;6.18;100.00
6565;BME280;3316;44.118;27.258;2024-02-15T00:27:17;101672.22;;;6.19;100.00
6565;BME280;3316;44.118;27.258;2024-02-15T00:29:42;101673.75;;;6.11;100.00
6565;BME280;3316;44.118;27.258;2024-02-15T00:32:09;101672.09;;;6.14;100.00
6565;BME280;3316;44.118;27.258;2024-02-15T00:34:36;101671.13;;;6.09;100.00
6565;BME280;3316;44.118;27.258;2024-02-15T00:37:04;101609.13;;;5.70;100.00
6565;BME280;3316;44.118;27.258;2024-02-15T00:39:30;101664.00;;;6.04;100.00
6565;BME280;3316;44.118;27.258;2024-02-15T00:41:56;101667.56;;;6.06;100.00
6565;BME280;3316;44.118;27.258;2024-02-15T00:44:22;101633.56;;;6.04;100.00
6565;BME280;3316;44.118;27.258;2024-02-15T00:46:48;101599.00;;;5.82;100.00
6565;BME280;3316;44.118;27.258;2024-02-15T00:49:13;101655.50;;;6.12;100.00
6565;BME280;3316;44.118;27.258;2024-02-15T00:51:38;101645.03;;;6.12;100.00
6565;BME280;3316;44.118;27.258;2024-02-15T00:54:04;101659.31;;;6.26;100.00
6565;BME280;3316;44.118;27.258;2024-02-15T00:56:29;101631.72;;;6.00;100.00
6565;BME280;3316;44.118;27.258;2024-02-15T00:58:56;101646.97;;;6.19;100.00
6565;BME280;3316;44.118;27.258;2024-02-15T01:01:22;101653.31;;;6.30;100.00
6565;BME280;3316;44.118;27.258;2024-02-15T01:03:47;101590.53;;;5.89;100.00
6565;BME280;3316;44.118;27.258;2024-02-15T01:06:13;101656.53;;;6.19;100.00
6565;BME280;3316;44.118;27.258;2024-02-15T01:08:38;101639.13;;;6.19;100.00
6565;BME280;3316;44.118;27.258;2024-02-15T01:11:04;101641.63;;;6.15;100.00
6565;BME280;3316;44.118;27.258;2024-02-15T01:13:31;101613.50;;;6.05;100.00
6565;BME280;3316;44.118;27.258;2024-02-15T01:15:57;101577.47;;;5.90;100.00
6565;BME280;3316;44.118;27.258;2024-02-15T01:18:22;101619.75;;;6.10;100.00
6565;BME280;3316;44.118;27.258;2024-02-15T01:20:47;101646.13;;;6.20;100.00
6565;BME280;3316;44.118;27.258;2024-02-15T01:23:13;101639.94;;;6.17;100.00
6565;BME280;3316;44.118;27.258;2024-02-15T01:25:39;101644.59;;;6.30;100.00
6565;BME280;3316;44.118;27.258;2024-02-15T01:28:05;101594.97;;;5.93;100.00
6565;BME280;3316;44.118;27.258;2024-02-15T01:30:31;101645.44;;;6.29;100.00
6565;BME280;3316;44.118;27.258;2024-02-15T01:32:57;101646.97;;;6.19;100.00
6565;BME280;3316;44.118;27.258;2024-02-15T01:35:22;101641.59;;;6.13;100.00
6565;BME280;3316;44.118;27.258;2024-02-15T01:37:48;101635.56;;;6.16;100.00
6565;BME280;3316;44.118;27.258;2024-02-15T01:40:13;101607.16;;;5.94;100.00
6565;BME280;3316;44.118;27.258;2024-02-15T01:42:39;101623.28;;;6.12;100.00
6565;BME280;3316;44.118;27.258;2024-02-15T01:45:05;101642.50;;;6.14;100.00
6565;BME280;3316;44.118;27.258;2024-02-15T01:47:31;101643.34;;;6.14;100.00
6565;BME280;3316;44.118;27.258;2024-02-15T01:49:56;101651.31;;;6.19;100.00
6565;BME280;3316;44.118;27.258;2024-02-15T01:52:23;101654.94;;;6.24;100.00
6565;BME280;3316;44.118;27.258;2024-02-15T01:54:50;101647.91;;;6.21;100.00
6565;BME280;3316;44.118;27.258;2024-02-15T01:57:18;101643.63;;;6.26;100.00
6565;BME280;3316;44.118;27.258;2024-02-15T01:59:46;101632.91;;;6.14;100.00
6565;BME280;3316;44.118;27.258;2024-02-15T02:02:12;101635.56;;;6.16;100.00
6565;BME280;3316;44.118;27.258;2024-02-15T02:04:40;101642.44;;;6.12;100.00
6565;BME280;3316;44.118;27.258;2024-02-15T02:07:06;101648.66;;;6.17;100.00
6565;BME280;3316;44.118;27.258;2024-02-15T02:09:32;101574.72;;;5.84;100.00
6565;BME280;3316;44.118;27.258;2024-02-15T02:11:57;101582.75;;;5.92;100.00
6565;BME280;3316;44.118;27.258;2024-02-15T02:14:23;101637.25;;;6.14;100.00
6565;BME280;3316;44.118;27.258;2024-02-15T02:16:49;101645.03;;;6.12;100.00
6565;BME280;3316;44.118;27.258;2024-02-15T02:19:15;101634.25;;;5.97;100.00
6565;BME280;3316;44.118;27.258;2024-02-15T02:21:42;101652.69;;;6.05;100.00
6565;BME280;3316;44.118;27.258;2024-02-15T02:24:14;101660.16;;;6.24;100.00
6565;BME280;3316;44.118;27.258;2024-02-15T02:26:43;101666.22;;;6.23;100.00
6565;BME280;3316;44.118;27.258;2024-02-15T02:29:09;101658.19;;;6.15;100.00
6565;BME280;3316;44.118;27.258;2024-02-15T02:31:35;101631.75;;;6.02;100.00
6565;BME280;3316;44.118;27.258;2024-02-15T02:34:01;101633.44;;;6.00;100.00
6565;BME280;3316;44.118;27.258;2024-02-15T02:36:27;101652.84;;;6.11;100.00
6565;BME280;3316;44.118;27.258;2024-02-15T02:38:54;101654.94;;;6.24;100.00
6565;BME280;3316;44.118;27.258;2024-02-15T02:41:20;101657.59;;;6.27;100.00
6565;BME280;3316;44.118;27.258;2024-02-15T02:43:46;101660.22;;;6.27;100.00
6565;BME280;3316;44.118;27.258;2024-02-15T02:46:12;101672.47;;;6.29;100.00
6565;BME280;3316;44.118;27.258;2024-02-15T02:48:39;101627.56;;;6.08;100.00
6565;BME280;3316;44.118;27.258;2024-02-15T02:51:05;101668.00;;;6.24;100.00
6565;BME280;3316;44.118;27.258;2024-02-15T02:53:31;101653.19;;;6.24;100.00
6565;BME280;3316;44.118;27.258;2024-02-15T02:55:56;101655.72;;;6.21;100.00
6565;BME280;3316;44.118;27.258;2024-02-15T02:58:22;101656.47;;;6.16;100.00
6565;BME280;3316;44.118;27.258;2024-02-15T03:00:51;101665.28;;;6.21;100.00
6565;BME280;3316;44.118;27.258;2024-02-15T03:03:17;101662.56;;;6.16;100.00
6565;BME280;3316;44.118;27.258;2024-02-15T03:05:44;101662.63;;;6.18;100.00
6565;BME280;3316;44.118;27.258;2024-02-15T03:08:09;101645.88;;;6.10;100.00
6565;BME280;3316;44.118;27.258;2024-02-15T03:10:35;101648.56;;;6.14;100.00
6565;BME280;3316;44.118;27.258;2024-02-15T03:13:00;101641.53;;;6.10;100.00
6565;BME280;3316;44.118;27.258;2024-02-15T03:15:26;101684.63;;;6.27;100.00
6565;BME280;3316;44.118;27.258;2024-02-15T03:17:51;101684.72;;;6.32;100.00
6565;BME280;3316;44.118;27.258;2024-02-15T03:20:17;101674.00;;;6.20;100.00
6565;BME280;3316;44.118;27.258;2024-02-15T03:22:55;101678.69;;;6.35;100.00
6565;BME280;3316;44.118;27.258;2024-02-15T03:25:22;101676.63;;;6.21;100.00
6565;BME280;3316;44.118;27.258;2024-02-15T03:27:54;101680.03;;;6.17;100.00
6565;BME280;3316;44.118;27.258;2024-02-15T03:30:22;101677.31;;;6.14;100.00
6565;BME280;3316;44.118;27.258;2024-02-15T03:32:49;101683.47;;;6.16;100.00
6565;BME280;3316;44.118;27.258;2024-02-15T03:35:17;101679.00;;;6.12;100.00
6565;BME280;3316;44.118;27.258;2024-02-15T03:37:43;101683.47;;;6.16;100.00
6565;BME280;3316;44.118;27.258;2024-02-15T03:40:09;101674.91;;;6.22;100.00
6565;BME280;3316;44.118;27.258;2024-02-15T03:42:35;101682.66;;;6.19;100.00
6565;BME280;3316;44.118;27.258;2024-02-15T03:45:04;101645.13;;;6.15;100.00
6565;BME280;3316;44.118;27.258;2024-02-15T03:47:34;101652.25;;;6.22;100.00
6565;BME280;3316;44.118;27.258;2024-02-15T03:50:04;101675.94;;;6.28;100.00
6565;BME280;3316;44.118;27.258;2024-02-15T03:52:30;101680.94;;;6.19;100.00
6565;BME280;3316;44.118;27.258;2024-02-15T03:54:56;101676.56;;;6.18;100.00
6565;BME280;3316;44.118;27.258;2024-02-15T03:57:28;101672.22;;;6.19;100.00
6565;BME280;3316;44.118;27.258;2024-02-15T03:59:54;101647.59;;;6.09;100.00
6565;BME280;3316;44.118;27.258;2024-02-15T04:02:23;101651.25;;;6.16;100.00
6565;BME280;3316;44.118;27.258;2024-02-15T04:04:54;101643.25;;;6.08;100.00
6565;BME280;3316;44.118;27.258;2024-02-15T04:07:21;101637.69;;;5.95;100.00
6565;BME280;3316;44.118;27.258;2024-02-15T04:09:47;101674.16;;;6.26;100.00
6565;BME280;3316;44.118;27.258;2024-02-15T04:12:13;101680.38;;;6.32;100.00
6565;BME280;3316;44.118;27.258;2024-02-15T04:14:43;101657.94;;;6.05;100.00
6565;BME280;3316;44.118;27.258;2024-02-15T04:17:10;101655.50;;;6.12;100.00
6565;BME280;3316;44.118;27.258;2024-02-15T04:19:36;101629.13;;;6.02;100.00
6565;BME280;3316;44.118;27.258;2024-02-15T04:22:02;101686.47;;;6.32;100.00
6565;BME280;3316;44.118;27.258;2024-02-15T04:24:35;101687.88;;;6.55;100.00
6565;BME280;3316;44.118;27.258;2024-02-15T04:27:07;101633.03;;;6.20;100.00
6565;BME280;3316;44.118;27.258;2024-02-15T04:29:39;101691.44;;;6.58;100.00
6565;BME280;3316;44.118;27.258;2024-02-15T04:32:09;101692.34;;;6.59;100.00
6565;BME280;3316;44.118;27.258;2024-02-15T04:34:36;101688.47;;;6.80;100.00
6565;BME280;3316;44.118;27.258;2024-02-15T04:37:02;101699.25;;;6.95;100.00
6565;BME280;3316;44.118;27.258;2024-02-15T04:39:35;101707.22;;;7.01;100.00
6565;BME280;3316;44.118;27.258;2024-02-15T04:42:04;101619.69;;;6.46;100.00
6565;BME280;3316;44.118;27.258;2024-02-15T04:44:31;101713.41;;;7.05;100.00
6565;BME280;3316;44.118;27.258;2024-02-15T04:47:00;101710.50;;;6.93;100.00
6565;BME280;3316;44.118;27.258;2024-02-15T04:49:26;101692.00;;;6.84;100.00
6565;BME280;3316;44.118;27.258;2024-02-15T04:51:54;101703.19;;;6.77;100.00
6565;BME280;3316;44.118;27.258;2024-02-15T04:54:20;101723.63;;;6.94;100.00
6565;BME280;3316;44.118;27.258;2024-02-15T04:56:45;101709.59;;;6.91;100.00
6565;BME280;3316;44.118;27.258;2024-02-15T04:59:11;101723.69;;;6.96;100.00
6565;BME280;3316;44.118;27.258;2024-02-15T05:01:47;101709.53;;;6.86;100.00
6565;BME280;3316;44.118;27.258;2024-02-15T05:04:14;101729.75;;;6.95;100.00
6565;BME280;3316;44.118;27.258;2024-02-15T05:06:40;101727.84;;;6.88;100.00
6565;BME280;3316;44.118;27.258;2024-02-15T05:09:06;101661.88;;;6.61;100.00
6565;BME280;3316;44.118;27.258;2024-02-15T05:11:39;101721.00;;;6.94;100.00
6565;BME280;3316;44.118;27.258;2024-02-15T05:14:12;101750.13;;;7.08;100.00
6565;BME280;3316;44.118;27.258;2024-02-15T05:16:37;101723.53;;;6.88;100.00
6565;BME280;3316;44.118;27.258;2024-02-15T05:19:10;101722.59;;;6.86;100.00
6565;BME280;3316;44.118;27.258;2024-02-15T05:21:38;101755.94;;;6.96;100.00
6565;BME280;3316;44.118;27.258;2024-02-15T05:24:05;101749.06;;;7.00;100.00
6565;BME280;3316;44.118;27.258;2024-02-15T05:26:30;101759.16;;;6.85;100.00
6565;BME280;3316;44.118;27.258;2024-02-15T05:28:56;101767.41;;;7.01;100.00
6565;BME280;3316;44.118;27.258;2024-02-15T05:31:21;101739.22;;;6.88;100.00
6565;BME280;3316;44.118;27.258;2024-02-15T05:33:50;101774.22;;;6.95;100.00
6565;BME280;3316;44.118;27.258;2024-02-15T05:36:18;101771.59;;;6.95;100.00
6565;BME280;3316;44.118;27.258;2024-02-15T05:38:53;101771.59;;;6.93;100.00
6565;BME280;3316;44.118;27.258;2024-02-15T05:41:20;101727.25;;;6.61;100.00
6565;BME280;3316;44.118;27.258;2024-02-15T05:43:46;101769.91;;;6.97;100.00
6565;BME280;3316;44.118;27.258;2024-02-15T05:46:14;101778.31;;;6.82;100.00
6565;BME280;3316;44.118;27.258;2024-02-15T05:48:40;101780.75;;;6.75;100.00
6565;BME280;3316;44.118;27.258;2024-02-15T05:51:07;101698.19;;;6.49;100.00
6565;BME280;3316;44.118;27.258;2024-02-15T05:53:34;101808.34;;;6.99;100.00
6565;BME280;3316;44.118;27.258;2024-02-15T05:56:04;101808.34;;;6.99;100.00
6565;BME280;3316;44.118;27.258;2024-02-15T05:58:32;101810.72;;;6.89;100.00
6565;BME280;3316;44.118;27.258;2024-02-15T06:00:58;101793.78;;;6.73;100.00
6565;BME280;3316;44.118;27.258;2024-02-15T06:03:30;101811.16;;;6.71;100.00
6565;BME280;3316;44.118;27.258;2024-02-15T06:05:57;101816.31;;;6.67;100.00
6565;BME280;3316;44.118;27.258;2024-02-15T06:08:27;101818.78;;;6.62;100.00
6565;BME280;3316;44.118;27.258;2024-02-15T06:10:53;101817.06;;;6.63;100.00
6565;BME280;3316;44.118;27.258;2024-02-15T06:13:19;101793.16;;;6.48;100.00
6565;BME280;3316;44.118;27.258;2024-02-15T06:15:45;101816.63;;;6.45;100.00
6565;BME280;3316;44.118;27.258;2024-02-15T06:18:14;101818.50;;;6.50;100.00
6565;BME280;3316;44.118;27.258;2024-02-15T06:20:41;101799.81;;;6.35;100.00
6565;BME280;3316;44.118;27.258;2024-02-15T06:23:08;101790.13;;;6.31;100.00
6565;BME280;3316;44.118;27.258;2024-02-15T06:25:35;101808.78;;;6.46;100.00
6565;BME280;3316;44.118;27.258;2024-02-15T06:28:01;101797.94;;;6.29;100.00
6565;BME280;3316;44.118;27.258;2024-02-15T06:30:41;101805.72;;;6.28;100.00
6565;BME280;3316;44.118;27.258;2024-02-15T06:33:25;101802.78;;;6.49;100.00
6565;BME280;3316;44.118;27.258;2024-02-15T06:36:09;101793.22;;;6.49;100.00
6565;BME280;3316;44.118;27.258;2024-02-15T06:38:53;101810.00;;;6.59;100.00
6565;BME280;3316;44.118;27.258;2024-02-15T06:41:37;101815.63;;;6.75;100.00
6565;BME280;3316;44.118;27.258;2024-02-15T06:44:02;101823.50;;;6.77;100.00
6565;BME280;3316;44.118;27.258;2024-02-15T06:46:28;101822.88;;;6.87;100.00
6565;BME280;3316;44.118;27.258;2024-02-15T06:48:54;101823.66;;;6.83;100.00
6565;BME280;3316;44.118;27.258;2024-02-15T06:51:20;101756.63;;;6.51;100.00
6565;BME280;3316;44.118;27.258;2024-02-15T06:53:45;101825.50;;;6.87;100.00
6565;BME280;3316;44.118;27.258;2024-02-15T06:56:12;101811.50;;;6.85;100.00
6565;BME280;3316;44.118;27.258;2024-02-15T06:58:39;101799.09;;;6.76;100.00
6565;BME280;3316;44.118;27.258;2024-02-15T07:01:05;101793.88;;;6.76;100.00
6565;BME280;3316;44.118;27.258;2024-02-15T07:03:31;101824.19;;;7.05;100.00
6565;BME280;3316;44.118;27.258;2024-02-15T07:05:57;101766.09;;;6.83;100.00
6565;BME280;3316;44.118;27.258;2024-02-15T07:08:23;101825.44;;;7.21;100.00
6565;BME280;3316;44.118;27.258;2024-02-15T07:10:52;101808.03;;;7.23;100.00
6565;BME280;3316;44.118;27.258;2024-02-15T07:13:17;101816.09;;;7.34;100.00
6565;BME280;3316;44.118;27.258;2024-02-15T07:15:44;101813.44;;;7.32;100.00
6565;BME280;3316;44.118;27.258;2024-02-15T07:18:12;101811.00;;;7.41;100.00
6565;BME280;3316;44.118;27.258;2024-02-15T07:20:37;101803.16;;;7.41;100.00
6565;BME280;3316;44.118;27.258;2024-02-15T07:23:03;101825.25;;;7.54;100.00
6565;BME280;3316;44.118;27.258;2024-02-15T07:25:30;101828.94;;;7.63;100.00
6565;BME280;3316;44.118;27.258;2024-02-15T07:27:56;101835.22;;;7.71;100.00
6565;BME280;3316;44.118;27.258;2024-02-15T07:30:22;101841.41;;;7.75;100.00
6565;BME280;3316;44.118;27.258;2024-02-15T07:32:48;101822.25;;;7.77;100.00
6565;BME280;3316;44.118;27.258;2024-02-15T07:35:14;101781.53;;;7.51;100.00
6565;BME280;3316;44.118;27.258;2024-02-15T07:37:51;101833.53;;;7.73;100.00
6565;BME280;3316;44.118;27.258;2024-02-15T07:40:16;101768.66;;;7.60;100.00
6565;BME280;3316;44.118;27.258;2024-02-15T07:42:42;101815.94;;;8.11;100.00
6565;BME280;3316;44.118;27.258;2024-02-15T07:45:08;101793.41;;;8.24;98.45
6565;BME280;3316;44.118;27.258;2024-02-15T07:47:35;101814.38;;;8.71;96.35
6565;BME280;3316;44.118;27.258;2024-02-15T07:50:00;101814.00;;;9.03;91.57
6565;BME280;3316;44.118;27.258;2024-02-15T07:52:26;101805.78;;;9.41;87.29
6565;BME280;3316;44.118;27.258;2024-02-15T07:54:51;101788.56;;;9.64;83.52
6565;BME280;3316;44.118;27.258;2024-02-15T07:57:17;101785.41;;;9.96;80.22
6565;BME280;3316;44.118;27.258;2024-02-15T07:59:43;101818.94;;;10.15;78.81
6565;BME280;3316;44.118;27.258;2024-02-15T08:02:09;101803.41;;;10.42;76.44
6565;BME280;3316;44.118;27.258;2024-02-15T08:04:36;101816.31;;;10.15;78.36
6565;BME280;3316;44.118;27.258;2024-02-15T08:07:06;101824.44;;;10.39;78.00
6565;BME280;3316;44.118;27.258;2024-02-15T08:09:36;101778.81;;;10.38;76.41
6565;BME280;3316;44.118;27.258;2024-02-15T08:12:01;101796.34;;;10.35;77.04
6565;BME280;3316;44.118;27.258;2024-02-15T08:14:28;101787.56;;;10.34;83.39
6565;BME280;3316;44.118;27.258;2024-02-15T08:16:53;101770.31;;;10.66;87.96
6565;BME280;3316;44.118;27.258;2024-02-15T08:19:21;101793.09;;;10.67;90.28
6565;BME280;3316;44.118;27.258;2024-02-15T08:21:48;101804.41;;;10.56;95.13
6565;BME280;3316;44.118;27.258;2024-02-15T08:24:16;101792.09;;;10.52;95.11
6565;BME280;3316;44.118;27.258;2024-02-15T08:26:42;101804.53;;;10.68;95.07
6565;BME280;3316;44.118;27.258;2024-02-15T08:29:08;101799.38;;;10.85;94.75
6565;BME280;3316;44.118;27.258;2024-02-15T08:31:35;101809.31;;;11.29;91.75
6565;BME280;3316;44.118;27.258;2024-02-15T08:34:03;101792.00;;;11.84;85.39
6565;BME280;3316;44.118;27.258;2024-02-15T08:36:35;101798.16;;;11.82;84.97
6565;BME280;3316;44.118;27.258;2024-02-15T08:39:00;101774.47;;;12.07;80.92
6565;BME280;3316;44.118;27.258;2024-02-15T08:41:26;101800.00;;;12.16;80.19
6565;BME280;3316;44.118;27.258;2024-02-15T08:43:52;101807.97;;;12.79;77.83
6565;BME280;3316;44.118;27.258;2024-02-15T08:46:19;101807.78;;;13.67;72.18
6565;BME280;3316;44.118;27.258;2024-02-15T08:48:46;101806.41;;;14.51;66.32
6565;BME280;3316;44.118;27.258;2024-02-15T08:51:12;101812.56;;;14.51;63.92
6565;BME280;3316;44.118;27.258;2024-02-15T08:53:38;101810.38;;;13.70;64.77
6565;BME280;3316;44.118;27.258;2024-02-15T08:56:06;101778.91;;;12.37;70.90
6565;BME280;3316;44.118;27.258;2024-02-15T08:58:34;101814.91;;;12.00;75.97
6565;BME280;3316;44.118;27.258;2024-02-15T09:01:00;101816.47;;;11.53;80.29
6565;BME280;3316;44.118;27.258;2024-02-15T09:03:25;101822.81;;;11.96;79.07
6565;BME280;3316;44.118;27.258;2024-02-15T09:05:51;101812.38;;;12.50;77.25
6565;BME280;3316;44.118;27.258;2024-02-15T09:08:17;101800.78;;;13.45;69.51
6565;BME280;3316;44.118;27.258;2024-02-15T09:10:49;101751.50;;;13.33;66.33
6565;BME280;3316;44.118;27.258;2024-02-15T09:13:15;101798.91;;;13.74;65.03
6565;BME280;3316;44.118;27.258;2024-02-15T09:15:40;101799.06;;;13.34;64.69
6565;BME280;3316;44.118;27.258;2024-02-15T09:18:07;101791.13;;;13.44;64.00
6565;BME280;3316;44.118;27.258;2024-02-15T09:20:35;101783.09;;;13.66;61.46
6565;BME280;3316;44.118;27.258;2024-02-15T09:23:03;101782.34;;;13.31;63.33
6565;BME280;3316;44.118;27.258;2024-02-15T09:25:34;101786.69;;;13.52;61.68
6565;BME280;3316;44.118;27.258;2024-02-15T09:28:01;101783.88;;;13.83;63.59
6565;BME280;3316;44.118;27.258;2024-02-15T09:30:28;101783.59;;;14.30;63.06
6565;BME280;3316;44.118;27.258;2024-02-15T09:32:53;101750.78;;;14.52;60.44
6565;BME280;3316;44.118;27.258;2024-02-15T09:35:19;101782.22;;;15.69;56.93
6565;BME280;3316;44.118;27.258;2024-02-15T09:37:47;101771.56;;;15.72;54.21
6565;BME280;3316;44.118;27.258;2024-02-15T09:40:16;101771.69;;;14.84;57.48
6565;BME280;3316;44.118;27.258;2024-02-15T09:42:46;101769.66;;;17.38;51.55
6565;BME280;3316;44.118;27.258;2024-02-15T09:45:12;101747.19;;;17.10;49.56
6565;BME280;3316;44.118;27.258;2024-02-15T09:47:40;101753.66;;;16.96;50.63
6565;BME280;3316;44.118;27.258;2024-02-15T09:52:32;101749.41;;;17.74;48.75
6565;BME280;3316;44.118;27.258;2024-02-15T09:55:02;101752.81;;;17.81;47.88
6565;BME280;3316;44.118;27.258;2024-02-15T09:57:29;101755.91;;;15.51;51.34
6565;BME280;3316;44.118;27.258;2024-02-15T09:59:57;101758.06;;;14.27;55.57
6565;BME280;3316;44.118;27.258;2024-02-15T10:02:23;101740.84;;;14.75;55.38
6565;BME280;3316;44.118;27.258;2024-02-15T10:04:49;101746.75;;;13.97;57.22
6565;BME280;3316;44.118;27.258;2024-02-15T10:07:15;101734.84;;;14.58;56.96
6565;BME280;3316;44.118;27.258;2024-02-15T10:09:43;101729.88;;;15.78;52.47
6565;BME280;3316;44.118;27.258;2024-02-15T10:12:09;101735.66;;;16.08;51.89
6565;BME280;3316;44.118;27.258;2024-02-15T10:14:35;101730.66;;;15.18;53.45
6565;BME280;3316;44.118;27.258;2024-02-15T10:17:08;101704.31;;;16.29;50.47
6565;BME280;3316;44.118;27.258;2024-02-15T10:19:39;101722.81;;;16.35;50.74
6565;BME280;3316;44.118;27.258;2024-02-15T10:22:06;101724.72;;;16.27;50.37
6565;BME280;3316;44.118;27.258;2024-02-15T10:24:32;101722.44;;;15.41;52.40
6565;BME280;3316;44.118;27.258;2024-02-15T10:27:02;101720.81;;;14.44;53.92
6565;BME280;3316;44.118;27.258;2024-02-15T10:29:36;101706.41;;;13.62;56.71
6565;BME280;3316;44.118;27.258;2024-02-15T10:32:03;101719.03;;;12.84;60.05
6565;BME280;3316;44.118;27.258;2024-02-15T10:34:32;101697.97;;;12.31;61.09
6565;BME280;3316;44.118;27.258;2024-02-15T10:37:12;101715.56;;;12.37;61.88
6565;BME280;3316;44.118;27.258;2024-02-15T10:39:38;101709.41;;;12.27;64.28
6565;BME280;3316;44.118;27.258;2024-02-15T10:42:06;101710.31;;;12.07;66.59
6565;BME280;3316;44.118;27.258;2024-02-15T10:44:32;101706.78;;;12.18;66.77
6565;BME280;3316;44.118;27.258;2024-02-15T10:47:01;101697.09;;;12.10;67.03
6565;BME280;3316;44.118;27.258;2024-02-15T10:49:32;101704.97;;;11.77;69.12
6565;BME280;3316;44.118;27.258;2024-02-15T10:51:59;101704.97;;;11.92;70.05
6565;BME280;3316;44.118;27.258;2024-02-15T10:54:51;101702.38;;;12.20;67.34
6565;BME280;3316;44.118;27.258;2024-02-15T10:57:20;101677.72;;;11.70;67.70
6565;BME280;3316;44.118;27.258;2024-02-15T10:59:58;101648.59;;;11.35;70.14
6565;BME280;3316;44.118;27.258;2024-02-15T11:02:28;101697.97;;;11.82;70.08
6565;BME280;3316;44.118;27.258;2024-02-15T11:05:14;101694.41;;;11.71;69.05
6565;BME280;3316;44.118;27.258;2024-02-15T11:07:46;101663.59;;;11.59;70.65
6565;BME280;3316;44.118;27.258;2024-02-15T11:10:11;101621.47;;;11.77;68.28
6565;BME280;3316;44.118;27.258;2024-02-15T11:12:42;101662.78;;;12.34;65.83
6565;BME280;3316;44.118;27.258;2024-02-15T11:15:09;101668.97;;;12.10;66.62
6565;BME280;3316;44.118;27.258;2024-02-15T11:20:06;101668.09;;;12.05;65.80
6565;BME280;3316;44.118;27.258;2024-02-15T11:22:35;101658.38;;;12.27;65.41
6565;BME280;3316;44.118;27.258;2024-02-15T11:25:07;101668.94;;;12.37;65.28
6565;BME280;3316;44.118;27.258;2024-02-15T11:27:42;101663.59;;;12.66;64.02
6565;BME280;3316;44.118;27.258;2024-02-15T11:30:07;101661.00;;;12.52;63.91
6565;BME280;3316;44.118;27.258;2024-02-15T11:32:44;101669.78;;;12.53;63.53
6565;BME280;3316;44.118;27.258;2024-02-15T11:35:10;101647.00;;;11.99;64.44
6565;BME280;3316;44.118;27.258;2024-02-15T11:42:53;101675.94;;;12.64;64.74
6565;BME280;3316;44.118;27.258;2024-02-15T11:45:19;101664.50;;;12.59;64.48
6565;BME280;3316;44.118;27.258;2024-02-15T11:47:49;101641.66;;;12.49;63.34
6565;BME280;3316;44.118;27.258;2024-02-15T11:50:17;101640.75;;;12.42;63.83
6565;BME280;3316;44.118;27.258;2024-02-15T11:52:44;101663.66;;;12.37;65.24
6565;BME280;3316;44.118;27.258;2024-02-15T11:55:09;101627.63;;;11.96;67.09
6565;BME280;3316;44.118;27.258;2024-02-15T11:57:58;101662.78;;;12.25;67.92
6565;BME280;3316;44.118;27.258;2024-02-15T12:00:42;101641.69;;;12.10;66.33
6565;BME280;3316;44.118;27.258;2024-02-15T12:03:26;101654.88;;;12.20;67.51
6565;BME280;3316;44.118;27.258;2024-02-15T12:06:11;101654.88;;;12.10;68.48
6565;BME280;3316;44.118;27.258;2024-02-15T12:08:55;101654.00;;;12.12;68.35
6565;BME280;3316;44.118;27.258;2024-02-15T12:11:39;101626.75;;;12.00;67.71
6565;BME280;3316;44.118;27.258;2024-02-15T12:14:24;101654.88;;;12.10;69.17
6565;BME280;3316;44.118;27.258;2024-02-15T12:17:12;101644.34;;;12.02;69.83
6565;BME280;3316;44.118;27.258;2024-02-15T12:19:59;101649.63;;;11.87;69.73
6565;BME280;3316;44.118;27.258;2024-02-15T12:22:34;101639.06;;;11.92;70.92
6565;BME280;3316;44.118;27.258;2024-02-15T12:25:02;101638.16;;;11.82;72.21
6565;BME280;3316;44.118;27.258;2024-02-15T12:27:37;101622.38;;;11.90;70.42
6565;BME280;3316;44.118;27.258;2024-02-15T12:30:04;101624.13;;;11.92;70.95
6565;BME280;3316;44.118;27.258;2024-02-15T12:32:32;101647.84;;;12.12;70.33
6565;BME280;3316;44.118;27.258;2024-02-15T12:35:14;101619.72;;;12.03;67.00
6565;BME280;3316;44.118;27.258;2024-02-15T12:37:49;101638.19;;;11.94;67.05
6565;BME280;3316;44.118;27.258;2024-02-15T12:40:35;101635.56;;;12.17;66.85
6565;BME280;3316;44.118;27.258;2024-02-15T12:43:07;101608.28;;;12.03;65.67
6565;BME280;3316;44.118;27.258;2024-02-15T12:45:38;101639.06;;;12.16;67.47
6565;BME280;3316;44.118;27.258;2024-02-15T12:48:05;101606.50;;;12.09;67.07
6565;BME280;3316;44.118;27.258;2024-02-15T12:50:34;101639.91;;;12.33;67.97
6565;BME280;3316;44.118;27.258;2024-02-15T12:53:00;101628.47;;;12.31;65.91
6565;BME280;3316;44.118;27.258;2024-02-15T12:55:33;101603.88;;;12.08;64.19
6565;BME280;3316;44.118;27.258;2024-02-15T12:58:03;101607.41;;;11.84;65.04
6565;BME280;3316;44.118;27.258;2024-02-15T13:00:33;101626.72;;;12.33;63.81
6565;BME280;3316;44.118;27.258;2024-02-15T13:03:05;101602.13;;;12.26;63.35
6565;BME280;3316;44.118;27.258;2024-02-15T13:05:32;101624.91;;;12.58;62.08
6565;BME280;3316;44.118;27.258;2024-02-15T13:07:57;101598.53;;;12.42;62.54
6565;BME280;3316;44.118;27.258;2024-02-15T13:10:23;101629.41;;;11.95;67.37
6565;BME280;3316;44.118;27.258;2024-02-15T13:12:51;101632.88;;;12.26;66.87
6565;BME280;3316;44.118;27.258;2024-02-15T13:15:17;101629.34;;;12.27;66.47